Time;durP1;ratioP1;P1;durP2;ratioP2;P2;SDS_P1;SDS_P2;PMS_P1;PMS_P2;Temp;Humidity;BMP_temperature;BMP_pressure;BME280_temperature;BME280_humidity;BME280_pressure;Samples;Min_cycle;Max_cycle;Signal;HPM_P1;HPM_P2
2021/09/08 00:01:38;;;;;;;27.42;17.70;;;;;;;13.48;74.40;100838.28;4988744;28;106659;-62
2021/09/08 00:04:03;;;;;;;27.02;18.38;;;;;;;13.46;74.17;100842.97;4992547;28;105707;-62
2021/09/08 00:06:28;;;;;;;23.98;17.00;;;;;;;13.44;74.65;100835.13;4998384;28;105909;-61
2021/09/08 00:08:54;;;;;;;26.80;17.33;;;;;;;13.41;74.53;100834.63;4996217;28;105943;-62
2021/09/08 00:11:19;;;;;;;27.00;17.77;;;;;;;13.38;74.31;100833.13;4993170;28;105893;-62
2021/09/08 00:13:45;;;;;;;25.38;16.60;;;;;;;13.35;74.42;100828.09;4988835;28;106105;-61
2021/09/08 00:16:11;;;;;;;24.70;16.20;;;;;;;13.32;74.40;100831.13;4988554;28;106109;-61
2021/09/08 00:18:36;;;;;;;24.63;15.82;;;;;;;13.29;74.89;100823.44;4988259;28;105992;-62
2021/09/08 00:21:01;;;;;;;28.25;18.55;;;;;;;13.26;74.88;100832.66;4988195;28;106184;-62
2021/09/08 00:23:27;;;;;;;28.65;18.75;;;;;;;13.24;74.78;100825.78;4988978;28;106023;-61
2021/09/08 00:25:52;;;;;;;30.23;19.58;;;;;;;13.20;75.01;100825.28;4988561;28;106141;-61
2021/09/08 00:28:18;;;;;;;27.98;17.70;;;;;;;13.18;74.81;100836.16;4988440;28;106060;-60
2021/09/08 00:30:43;;;;;;;25.33;16.27;;;;;;;13.16;74.73;100835.53;4988123;28;106392;-62
2021/09/08 00:33:08;;;;;;;23.10;16.75;;;;;;;13.14;74.98;100834.03;4989048;28;105689;-62
2021/09/08 00:35:34;;;;;;;28.00;16.90;;;;;;;13.12;75.15;100836.88;4988020;28;106220;-62
2021/09/08 00:37:59;;;;;;;26.77;17.25;;;;;;;13.10;74.99;100833.50;4992924;28;107991;-62
2021/09/08 00:40:24;;;;;;;26.05;15.90;;;;;;;13.08;75.45;100826.66;4990159;28;107019;-62
2021/09/08 00:42:50;;;;;;;25.65;16.67;;;;;;;13.07;75.57;100838.38;4988052;28;105762;-61
2021/09/08 00:45:15;;;;;;;22.52;15.93;;;;;;;13.04;75.66;100839.56;4988035;28;106566;-62
2021/09/08 00:47:41;;;;;;;24.60;16.17;;;;;;;13.03;75.70;100837.88;4987175;28;106693;-62
2021/09/08 00:50:08;;;;;;;24.35;16.83;;;;;;;13.00;75.57;100839.06;4987492;28;106116;-62
2021/09/08 00:52:35;;;;;;;24.42;16.02;;;;;;;12.98;75.33;100840.22;4987638;28;106444;-63
2021/09/08 00:55:01;;;;;;;25.55;17.27;;;;;;;12.93;75.67;100834.56;4987826;28;106071;-63
2021/09/08 00:57:28;;;;;;;26.15;16.90;;;;;;;12.91;75.59;100836.56;4987343;28;106055;-62
2021/09/08 00:59:53;;;;;;;23.13;15.80;;;;;;;12.88;75.81;100836.91;4987399;28;105876;-62
2021/09/08 01:02:19;;;;;;;28.58;18.60;;;;;;;12.84;76.17;100831.88;4988181;28;105805;-62
2021/09/08 01:04:45;;;;;;;24.15;17.02;;;;;;;12.83;75.99;100842.75;4987352;28;106137;-63
2021/09/08 01:07:11;;;;;;;23.75;16.13;;;;;;;12.80;75.96;100843.09;4986863;28;107731;-63
2021/09/08 01:09:36;;;;;;;22.42;15.77;;;;;;;12.77;75.92;100843.44;4994911;28;106341;-64
2021/09/08 01:12:02;;;;;;;25.10;15.20;;;;;;;12.75;76.23;100846.25;4988141;28;106060;-61
2021/09/08 01:14:28;;;;;;;24.73;16.20;;;;;;;12.72;76.23;100843.94;4987403;28;106107;-63
2021/09/08 01:16:56;;;;;;;23.83;15.40;;;;;;;12.71;76.55;100847.59;4987545;28;108016;-64
2021/09/08 01:19:22;;;;;;;26.17;16.50;;;;;;;12.68;76.62;100840.78;4987260;28;106078;-63
2021/09/08 01:21:48;;;;;;;23.40;15.65;;;;;;;12.66;76.60;100841.94;4988258;28;105893;-63
2021/09/08 01:24:14;;;;;;;23.88;16.13;;;;;;;12.64;76.28;100847.47;4990731;28;106121;-63
2021/09/08 01:26:41;;;;;;;26.65;15.48;;;;;;;12.61;76.44;100834.41;4990932;28;105822;-63
2021/09/08 01:29:08;;;;;;;28.35;16.63;;;;;;;12.60;76.85;100834.59;4990998;28;105920;-61
2021/09/08 01:31:35;;;;;;;25.05;16.77;;;;;;;12.58;76.95;100841.97;4989761;28;106381;-62
2021/09/08 01:34:00;;;;;;;22.65;15.38;;;;;;;12.56;76.83;100836.78;4991218;28;106086;-63
2021/09/08 01:36:26;;;;;;;22.85;16.63;;;;;;;12.55;76.96;100834.25;4990217;28;106336;-62
2021/09/08 01:38:52;;;;;;;25.10;16.42;;;;;;;12.53;77.50;100831.75;4990832;28;105789;-62
2021/09/08 01:41:18;;;;;;;28.77;17.88;;;;;;;12.50;76.99;100832.91;4991335;28;105930;-61
2021/09/08 01:43:46;;;;;;;29.88;17.58;;;;;;;12.48;77.22;100834.94;4991056;28;105856;-63
2021/09/08 01:46:22;;;;;;;26.17;16.90;;;;;;;12.45;76.74;100827.25;4990514;28;106353;-63
2021/09/08 01:48:48;;;;;;;25.80;16.42;;;;;;;12.43;77.36;100828.44;4990564;28;106102;-62
2021/09/08 01:51:14;;;;;;;30.52;17.33;;;;;;;12.41;77.60;100830.41;4991420;28;105868;-62
2021/09/08 01:53:40;;;;;;;30.42;18.42;;;;;;;12.38;77.69;100831.56;4990909;28;106161;-60
2021/09/08 01:56:06;;;;;;;31.13;18.55;;;;;;;12.36;77.29;100828.25;4990242;28;106259;-62
2021/09/08 01:58:32;;;;;;;27.38;19.70;;;;;;;12.33;77.25;100832.09;4990179;28;105918;-62
2021/09/08 02:00:58;;;;;;;35.10;24.30;;;;;;;12.32;77.57;100834.94;4991283;28;106244;-61
2021/09/08 02:03:23;;;;;;;35.30;23.75;;;;;;;12.30;77.76;100826.22;4990667;28;106264;-61
2021/09/08 02:05:49;;;;;;;29.10;21.13;;;;;;;12.29;77.36;100828.06;4990317;28;108734;-61
2021/09/08 02:08:14;;;;;;;28.60;18.58;;;;;;;12.27;77.55;100824.72;4990157;28;105960;-62
2021/09/08 02:10:39;;;;;;;24.23;16.70;;;;;;;12.27;77.97;100831.91;4989306;28;106336;-62
2021/09/08 02:13:06;;;;;;;27.13;17.20;;;;;;;12.24;78.34;100832.25;4990408;28;106148;-62
2021/09/08 02:15:31;;;;;;;26.15;17.67;;;;;;;12.23;78.41;100820.72;4990032;28;106822;-61
2021/09/08 02:17:57;;;;;;;24.67;15.95;;;;;;;12.24;78.17;100821.56;4990195;28;105814;-62
2021/09/08 02:20:22;;;;;;;25.15;16.20;;;;;;;12.22;77.97;100823.56;4990996;28;106042;-62
2021/09/08 02:22:47;;;;;;;22.70;16.10;;;;;;;12.20;78.09;100821.06;4990189;28;106268;-61
2021/09/08 02:25:13;;;;;;;23.25;17.33;;;;;;;12.18;78.26;100823.91;4989711;28;114000;-61
2021/09/08 02:27:39;;;;;;;24.25;15.63;;;;;;;12.17;78.33;100827.56;4990033;28;106634;-61
2021/09/08 02:30:05;;;;;;;23.63;16.60;;;;;;;12.16;78.44;100825.06;4990626;28;106418;-61
2021/09/08 02:32:31;;;;;;;27.45;16.92;;;;;;;12.15;78.69;100823.38;4990268;28;105934;-62
2021/09/08 02:34:56;;;;;;;28.27;18.02;;;;;;;12.12;78.22;100816.53;4989662;28;105968;-61
2021/09/08 02:37:22;;;;;;;23.52;16.27;;;;;;;12.10;78.30;100817.72;4989259;28;106017;-62
2021/09/08 02:39:48;;;;;;;24.13;16.73;;;;;;;12.07;78.09;100824.22;4990461;28;105949;-62
2021/09/08 02:42:14;;;;;;;24.67;16.23;;;;;;;12.05;78.39;100823.53;4990142;28;105809;-62
2021/09/08 02:44:39;;;;;;;27.75;16.33;;;;;;;12.03;78.56;100822.88;4989343;28;106879;-62
2021/09/08 02:47:05;;;;;;;24.98;15.80;;;;;;;11.99;78.64;100825.03;4989498;28;106103;-61
2021/09/08 02:49:30;;;;;;;22.40;15.80;;;;;;;11.96;78.70;100830.72;4990345;28;106072;-61
2021/09/08 02:51:55;;;;;;;24.83;16.95;;;;;;;11.93;78.69;100824.81;4989688;28;106488;-61
2021/09/08 02:54:20;;;;;;;25.80;17.05;;;;;;;11.91;78.24;100832.16;4989373;28;106397;-61
2021/09/08 02:56:46;;;;;;;27.85;16.98;;;;;;;11.89;78.49;100831.47;4989182;28;106060;-61
2021/09/08 02:59:11;;;;;;;27.33;17.42;;;;;;;11.86;78.56;100829.97;4990294;28;106055;-61
2021/09/08 03:01:36;;;;;;;30.63;19.48;;;;;;;11.85;78.90;100830.97;4989340;28;106195;-62
2021/09/08 03:04:02;;;;;;;32.60;19.52;;;;;;;11.84;78.78;100831.97;4989316;28;106974;-63
2021/09/08 03:06:27;;;;;;;28.45;18.80;;;;;;;11.82;78.80;100826.81;4989045;28;105814;-63
2021/09/08 03:08:53;;;;;;;29.45;19.30;;;;;;;11.81;78.91;100829.63;4989828;28;105864;-63
2021/09/08 03:11:18;;;;;;;30.73;18.67;;;;;;;11.78;78.52;100827.28;4989278;28;106235;-63
2021/09/08 03:13:43;;;;;;;28.00;18.00;;;;;;;11.75;78.96;100833.78;4988499;28;112447;-63
2021/09/08 03:16:08;;;;;;;29.60;16.10;;;;;;;11.73;78.63;100827.78;4989073;28;105787;-63
2021/09/08 03:18:34;;;;;;;20.75;14.60;;;;;;;11.71;78.84;100827.09;4989446;28;106492;-63
2021/09/08 03:20:59;;;;;;;24.20;15.48;;;;;;;11.69;78.78;100827.25;4989314;28;106119;-63
2021/09/08 03:23:24;;;;;;;24.13;15.45;;;;;;;11.65;78.66;100823.22;4988706;28;107767;-63
2021/09/08 03:25:50;;;;;;;23.27;15.13;;;;;;;11.63;79.11;100824.41;4988915;28;105991;-63
2021/09/08 03:28:15;;;;;;;24.10;15.25;;;;;;;11.60;79.26;100827.38;4989836;28;105870;-63
2021/09/08 03:30:41;;;;;;;28.30;17.42;;;;;;;11.56;78.98;100821.53;4988945;28;105914;-64
2021/09/08 03:33:06;;;;;;;25.67;14.82;;;;;;;11.52;79.33;100822.84;4988742;28;106391;-64
2021/09/08 03:35:31;;;;;;;24.27;15.18;;;;;;;11.50;78.70;100822.19;4988747;28;106058;-64
2021/09/08 03:37:57;;;;;;;24.05;15.90;;;;;;;11.47;79.10;100826.00;4989173;28;105938;-63
2021/09/08 03:40:22;;;;;;;26.20;16.10;;;;;;;11.44;79.21;100831.69;4988896;28;106169;-63
2021/09/08 03:42:48;;;;;;;25.42;17.33;;;;;;;11.40;79.48;100826.81;4988669;28;107004;-63
2021/09/08 03:45:14;;;;;;;24.52;16.33;;;;;;;11.39;79.53;100831.31;4987820;28;106044;-63
2021/09/08 03:47:40;;;;;;;30.17;16.00;;;;;;;11.36;79.43;100818.31;4989404;28;105892;-63
2021/09/08 03:50:06;;;;;;;23.88;14.98;;;;;;;11.35;79.88;100829.97;4988752;28;106119;-62
2021/09/08 03:52:32;;;;;;;26.13;16.98;;;;;;;11.34;79.58;100833.63;4988237;28;105969;-63
2021/09/08 03:54:57;;;;;;;24.25;15.45;;;;;;;11.30;79.93;100835.78;4988208;28;105831;-63
2021/09/08 03:57:23;;;;;;;29.05;16.17;;;;;;;11.27;79.34;100821.91;4988957;28;105925;-63
2021/09/08 03:59:48;;;;;;;25.77;15.82;;;;;;;11.25;79.56;100826.56;4988804;28;106178;-63
2021/09/08 04:02:13;;;;;;;29.05;15.30;;;;;;;11.22;79.73;100827.75;4988149;28;106306;-63
2021/09/08 04:04:39;;;;;;;29.52;16.35;;;;;;;11.20;79.54;100823.56;4973312;28;109080;-63
2021/09/08 04:07:04;;;;;;;32.53;15.43;;;;;;;11.17;79.99;100825.53;4969026;28;106164;-62
2021/09/08 04:09:30;;;;;;;29.40;15.82;;;;;;;11.14;80.04;100817.84;4967566;28;106069;-64
2021/09/08 04:11:55;;;;;;;27.10;15.98;;;;;;;11.13;79.92;100824.19;4968258;28;106161;-65
2021/09/08 04:14:20;;;;;;;29.60;15.65;;;;;;;11.12;79.71;100822.50;4968215;28;105936;-62
2021/09/08 04:16:46;;;;;;;37.13;18.65;;;;;;;11.13;80.30;100818.03;4968742;28;105941;-64
2021/09/08 04:19:11;;;;;;;31.90;18.92;;;;;;;11.13;80.31;100810.03;4968701;28;106289;-64
2021/09/08 04:21:37;;;;;;;34.30;18.45;;;;;;;11.13;80.50;100808.19;4968357;28;105905;-64
2021/09/08 04:24:02;;;;;;;32.15;18.00;;;;;;;11.14;80.54;100806.34;4968052;28;105807;-60
2021/09/08 04:26:27;;;;;;;31.48;19.00;;;;;;;11.14;80.85;100814.34;4968898;28;105847;-64
2021/09/08 04:28:53;;;;;;;28.15;18.88;;;;;;;11.15;80.72;100816.88;4968200;28;105905;-63
2021/09/08 04:31:18;;;;;;;41.78;24.25;;;;;;;11.18;80.33;100810.34;4967866;28;105985;-65
2021/09/08 04:33:43;;;;;;;29.48;18.17;;;;;;;11.22;80.66;100811.75;4966580;28;106220;-62
2021/09/08 04:36:09;;;;;;;29.65;19.40;;;;;;;11.24;80.81;100814.25;4967813;28;106377;-62
2021/09/08 04:38:37;;;;;;;42.63;25.90;;;;;;;11.26;80.57;100813.09;4961521;28;106037;-64
2021/09/08 04:41:03;;;;;;;34.60;20.48;;;;;;;11.30;81.12;100814.44;4948383;28;106608;-64
2021/09/08 04:43:28;;;;;;;34.72;20.35;;;;;;;11.33;80.75;100814.13;4948222;28;106090;-63
2021/09/08 04:45:54;;;;;;;40.17;19.40;;;;;;;11.37;80.86;100811.94;4948691;28;106299;-64
2021/09/08 04:48:20;;;;;;;38.80;20.42;;;;;;;11.41;80.50;100804.47;4948198;28;106152;-63
2021/09/08 04:50:45;;;;;;;39.38;20.85;;;;;;;11.46;81.15;100808.31;4947477;28;106026;-63
2021/09/08 04:53:10;;;;;;;30.33;18.58;;;;;;;11.51;80.76;100811.34;4948053;28;106229;-62
2021/09/08 04:55:36;;;;;;;30.15;19.08;;;;;;;11.58;80.83;100811.53;4947986;28;106298;-62
2021/09/08 04:58:01;;;;;;;29.70;18.70;;;;;;;11.66;81.03;100814.25;4949279;28;106201;-60
2021/09/08 05:00:27;;;;;;;28.58;18.45;;;;;;;11.74;81.28;100813.44;4951258;28;109980;-61
2021/09/08 05:02:52;;;;;;;34.00;20.70;;;;;;;11.83;80.99;100817.78;4951430;28;105974;-60
2021/09/08 05:05:18;;;;;;;35.00;19.75;;;;;;;11.95;81.02;100822.88;4952362;28;105846;-61
2021/09/08 05:07:43;;;;;;;38.70;19.85;;;;;;;12.01;81.13;100825.72;4951669;28;106117;-61
2021/09/08 05:10:09;;;;;;;32.67;19.58;;;;;;;12.11;81.18;100824.72;4951501;28;106039;-61
2021/09/08 05:12:34;;;;;;;35.88;19.73;;;;;;;12.19;80.68;100820.22;4950881;28;106306;-61
2021/09/08 05:15:00;;;;;;;64.55;54.30;;;;;;;12.30;81.05;100823.56;4951934;28;106059;-61
2021/09/08 05:17:26;;;;;;;61.65;52.38;;;;;;;12.39;81.26;100819.91;4951489;28;106287;-61
2021/09/08 05:19:51;;;;;;;62.70;44.00;;;;;;;12.51;81.28;100815.88;4951115;28;107235;-61
2021/09/08 05:22:17;;;;;;;51.28;32.92;;;;;;;12.62;80.44;100829.94;4951015;28;105817;-61
2021/09/08 05:24:42;;;;;;;35.88;25.65;;;;;;;12.69;80.61;100825.56;4952047;28;106167;-60
2021/09/08 05:27:07;;;;;;;39.03;25.23;;;;;;;12.78;80.92;100835.25;4948283;28;107325;-61
2021/09/08 05:29:32;;;;;;;38.42;24.08;;;;;;;12.92;80.53;100836.41;4934397;28;105783;-61
2021/09/08 05:31:58;;;;;;;38.90;23.67;;;;;;;13.00;80.45;100833.72;4931661;28;105695;-61
2021/09/08 05:34:23;;;;;;;38.30;22.00;;;;;;;13.12;80.74;100830.66;4931059;28;105959;-60
2021/09/08 05:36:49;;;;;;;38.45;21.83;;;;;;;13.25;80.77;100832.81;4931406;28;106168;-61
2021/09/08 05:39:14;;;;;;;33.80;21.58;;;;;;;13.42;80.85;100829.09;4931243;28;106707;-59
2021/09/08 05:41:40;;;;;;;30.98;19.55;;;;;;;13.54;80.28;100834.91;4930954;28;106167;-61
2021/09/08 05:44:05;;;;;;;31.02;20.40;;;;;;;13.68;80.45;100836.00;4931458;28;106013;-61
2021/09/08 05:46:31;;;;;;;28.52;19.77;;;;;;;13.82;80.24;100840.63;4931102;28;106275;-60
2021/09/08 05:48:56;;;;;;;33.35;21.63;;;;;;;14.00;80.11;100836.84;4931359;28;106844;-61
2021/09/08 05:51:21;;;;;;;28.92;20.75;;;;;;;14.09;79.64;100846.47;4931269;28;106353;-60
2021/09/08 05:53:47;;;;;;;31.38;18.65;;;;;;;14.24;79.85;100840.38;4931552;28;105842;-67
2021/09/08 05:56:12;;;;;;;31.23;18.67;;;;;;;14.36;79.57;100844.31;4931178;28;106309;-60
2021/09/08 05:58:38;;;;;;;29.23;17.60;;;;;;;14.52;79.46;100841.50;4931062;28;106580;-60
2021/09/08 06:01:03;;;;;;;29.40;19.13;;;;;;;14.75;79.72;100837.13;4930747;28;106287;-60
2021/09/08 06:03:28;;;;;;;28.92;18.75;;;;;;;14.93;79.12;100839.50;4930796;28;106317;-60
2021/09/08 06:05:54;;;;;;;27.52;18.40;;;;;;;15.09;78.94;100838.47;4930556;28;105949;-61
2021/09/08 06:08:19;;;;;;;31.38;18.45;;;;;;;15.27;78.59;100830.06;4930109;28;105926;-60
2021/09/08 06:10:44;;;;;;;27.30;17.50;;;;;;;15.46;78.51;100834.03;4930421;28;105919;-60
2021/09/08 06:13:09;;;;;;;31.42;19.35;;;;;;;15.65;78.41;100830.78;4930986;28;105856;-61
2021/09/08 06:15:35;;;;;;;27.38;18.33;;;;;;;15.82;78.13;100841.34;4930699;28;106373;-63
2021/09/08 06:18:02;;;;;;;32.17;18.35;;;;;;;16.01;77.78;100834.53;4930538;28;106449;-62
2021/09/08 06:20:29;;;;;;;30.48;17.90;;;;;;;16.16;77.26;100834.47;4930449;28;106133;-62
2021/09/08 06:22:54;;;;;;;28.98;17.75;;;;;;;16.22;76.84;100829.16;4931243;28;106489;-61
2021/09/08 06:25:20;;;;;;;31.88;18.15;;;;;;;16.29;76.20;100825.69;4931117;28;106096;-62
2021/09/08 06:27:45;;;;;;;26.65;18.30;;;;;;;16.43;76.40;100830.19;4930545;28;106366;-61
2021/09/08 06:30:11;;;;;;;28.63;18.15;;;;;;;16.48;75.96;100830.41;4930607;28;106172;-61
2021/09/08 06:32:36;;;;;;;32.33;18.67;;;;;;;16.65;76.05;100827.44;4931126;28;106270;-62
2021/09/08 06:35:02;;;;;;;28.00;16.42;;;;;;;16.75;75.66;100817.19;4930744;28;106199;-62
2021/09/08 06:37:28;;;;;;;28.08;17.17;;;;;;;16.98;76.01;100821.53;4929489;28;106082;-62
2021/09/08 06:39:54;;;;;;;26.48;18.52;;;;;;;17.18;75.11;100833.25;4930383;28;105875;-61
2021/09/08 06:42:19;;;;;;;32.47;17.90;;;;;;;17.23;74.75;100833.47;4931148;28;105972;-60
2021/09/08 06:44:49;;;;;;;30.13;17.70;;;;;;;17.44;74.90;100826.31;4930690;28;106240;-63
2021/09/08 06:47:15;;;;;;;26.73;17.20;;;;;;;17.74;75.07;100826.88;4930326;28;106574;-65
2021/09/08 06:49:40;;;;;;;28.52;17.20;;;;;;;18.04;74.84;100831.97;4930422;28;106318;-63
2021/09/08 06:52:06;;;;;;;26.13;14.95;;;;;;;18.32;74.34;100833.66;4929948;28;106029;-64
2021/09/08 06:54:31;;;;;;;23.67;15.90;;;;;;;18.57;73.84;100831.16;4930606;28;105958;-63
2021/09/08 06:56:56;;;;;;;25.08;15.95;;;;;;;18.84;73.27;100833.06;4930502;28;106198;-64
2021/09/08 06:59:22;;;;;;;22.58;15.65;;;;;;;18.90;72.03;100835.78;4929836;28;112617;-64
2021/09/08 07:01:48;;;;;;;21.83;15.57;;;;;;;19.11;72.00;100842.78;4930659;28;106121;-64
2021/09/08 07:04:14;;;;;;;27.67;15.40;;;;;;;19.13;70.94;100834.47;4930303;28;106446;-64
2021/09/08 07:06:39;;;;;;;29.35;15.38;;;;;;;19.26;70.38;100828.22;4929701;28;106711;-61
2021/09/08 07:09:04;;;;;;;24.15;14.27;;;;;;;19.41;70.58;100825.25;4929593;28;105919;-61
2021/09/08 07:11:30;;;;;;;25.45;14.80;;;;;;;19.58;69.48;100825.59;4930665;28;106112;-63
2021/09/08 07:13:55;;;;;;;21.50;15.77;;;;;;;19.68;69.13;100825.16;4929954;28;106192;-62
2021/09/08 07:16:20;;;;;;;21.13;13.10;;;;;;;19.85;69.10;100820.13;4929378;28;108215;-62
2021/09/08 07:18:46;;;;;;;25.42;14.18;;;;;;;19.94;67.36;100833.16;4929432;28;107317;-63
2021/09/08 07:21:11;;;;;;;25.70;13.93;;;;;;;19.94;67.17;100826.91;4929204;28;105808;-65
2021/09/08 07:23:36;;;;;;;19.95;12.85;;;;;;;20.12;67.79;100826.19;4929736;28;106223;-62
2021/09/08 07:26:02;;;;;;;26.00;12.23;;;;;;;20.41;67.14;100826.63;4929040;28;106131;-61
2021/09/08 07:28:28;;;;;;;22.52;14.90;;;;;;;20.50;65.77;100832.56;4929098;28;106223;-61
2021/09/08 07:30:53;;;;;;;21.30;13.35;;;;;;;20.66;65.17;100836.63;4929940;28;105991;-60
2021/09/08 07:33:23;;;;;;;21.48;12.18;;;;;;;20.91;65.17;100837.47;4929468;28;106147;-63
2021/09/08 07:35:49;;;;;;;18.17;13.23;;;;;;;21.14;64.05;100833.25;4929416;28;105998;-63
2021/09/08 07:38:16;;;;;;;20.90;12.07;;;;;;;21.40;64.16;100836.72;4929211;28;106163;-63
2021/09/08 07:40:42;;;;;;;22.52;12.43;;;;;;;21.68;63.48;100835.38;4929690;28;106009;-62
2021/09/08 07:43:07;;;;;;;25.67;12.13;;;;;;;21.98;62.68;100840.81;4928888;28;106256;-63
2021/09/08 07:45:33;;;;;;;19.08;12.35;;;;;;;22.09;60.98;100842.75;4929318;28;106001;-63
2021/09/08 07:47:58;;;;;;;17.65;11.45;;;;;;;22.12;60.03;100838.75;4928989;28;106345;-63
2021/09/08 07:50:23;;;;;;;20.05;11.65;;;;;;;22.31;60.42;100842.22;4930080;28;105994;-63
2021/09/08 07:52:49;;;;;;;16.85;12.23;;;;;;;22.63;59.88;100837.31;4936265;28;106140;-63
2021/09/08 07:55:14;;;;;;;18.10;12.02;;;;;;;22.95;58.72;100839.69;4948472;28;105921;-63
2021/09/08 07:57:40;;;;;;;16.85;11.00;;;;;;;23.12;57.58;100845.25;4947996;28;106316;-61
2021/09/08 08:00:06;;;;;;;18.83;12.57;;;;;;;23.30;56.70;100844.28;4949230;28;105869;-64
2021/09/08 08:02:40;;;;;;;20.48;12.07;;;;;;;23.35;55.55;100851.75;4948931;28;105910;-65
2021/09/08 08:05:06;;;;;;;17.85;11.55;;;;;;;23.48;55.70;100847.91;4948707;28;106087;-63
2021/09/08 08:07:31;;;;;;;16.50;12.15;;;;;;;23.60;54.99;100854.16;4948620;28;106110;-62
2021/09/08 08:09:57;;;;;;;15.27;11.43;;;;;;;23.78;55.13;100841.44;4948953;28;106033;-62
2021/09/08 08:12:22;;;;;;;16.95;10.60;;;;;;;24.13;54.11;100841.31;4947343;28;106354;-63
2021/09/08 08:14:47;;;;;;;16.83;12.18;;;;;;;24.47;53.13;100849.50;4947695;28;113566;-61
2021/09/08 08:17:13;;;;;;;19.52;11.05;;;;;;;24.63;51.99;100844.34;4948042;28;117816;-63
2021/09/08 08:19:38;;;;;;;18.40;12.20;;;;;;;24.96;51.99;100842.66;4949021;28;105857;-66
2021/09/08 08:22:03;;;;;;;25.85;12.10;;;;;;;25.35;50.48;100856.31;4948544;28;106547;-64
2021/09/08 08:24:29;;;;;;;16.17;11.93;;;;;;;25.33;48.19;100842.91;4948051;28;105997;-62
2021/09/08 08:26:54;;;;;;;15.88;11.35;;;;;;;25.34;48.69;100851.91;4938756;28;106089;-62
2021/09/08 08:29:19;;;;;;;17.60;10.77;;;;;;;25.36;48.25;100840.75;4932653;28;106006;-63
2021/09/08 08:31:45;;;;;;;14.95;10.80;;;;;;;25.74;47.50;100858.97;4928617;28;106133;-63
2021/09/08 08:34:11;;;;;;;16.27;11.73;;;;;;;25.90;46.90;100840.84;4928637;28;105873;-62
2021/09/08 08:36:37;;;;;;;17.65;11.45;;;;;;;26.37;46.78;100841.28;4928144;28;105827;-64
2021/09/08 08:39:02;;;;;;;14.88;10.90;;;;;;;27.27;45.47;100841.41;4932398;28;105807;-63
2021/09/08 08:41:28;;;;;;;15.02;10.57;;;;;;;29.18;43.53;100844.31;4948150;28;106166;-65
2021/09/08 08:43:53;;;;;;;16.92;10.65;;;;;;;32.05;40.70;100848.41;4947518;28;107125;-63
2021/09/08 08:46:19;;;;;;;15.75;10.00;;;;;;;35.31;34.77;100837.41;4947040;28;106024;-62
2021/09/08 08:48:44;;;;;;;14.45;10.30;;;;;;;36.99;28.67;100842.50;4948620;28;105757;-62
2021/09/08 08:51:10;;;;;;;12.57;9.13;;;;;;;38.24;26.38;100845.72;4947439;28;106232;-62
2021/09/08 08:53:35;;;;;;;15.93;9.13;;;;;;;39.56;24.24;100853.25;4948176;28;106008;-62
2021/09/08 08:56:00;;;;;;;13.82;9.57;;;;;;;40.51;22.63;100848.38;4947604;28;106302;-62
2021/09/08 08:58:26;;;;;;;11.93;9.10;;;;;;;40.72;21.59;100845.28;4948784;28;105901;-62
2021/09/08 09:01:30;;;;;;;15.20;9.00;;;;;;;41.30;20.91;100841.91;4948513;28;106117;-64
2021/09/08 09:04:04;;;;;;;13.63;8.80;;;;;;;42.48;20.11;100836.31;4947597;28;106253;-63
2021/09/08 09:06:30;;;;;;;12.93;9.30;;;;;;;43.06;19.54;100843.69;4947569;28;105935;-62
2021/09/08 09:09:01;;;;;;;13.52;9.27;;;;;;;43.30;18.86;100841.63;4947076;28;106450;-63
2021/09/08 09:11:26;;;;;;;12.27;8.60;;;;;;;43.95;18.09;100840.50;4947523;28;106135;-64
2021/09/08 09:13:52;;;;;;;14.73;8.00;;;;;;;44.73;17.21;100847.25;4947514;28;106009;-63
2021/09/08 09:16:17;;;;;;;11.75;8.05;;;;;;;45.38;16.55;100848.50;4947754;28;106297;-63
2021/09/08 09:18:44;;;;;;;13.43;7.75;;;;;;;45.49;16.09;100850.59;4948590;28;105773;-63
2021/09/08 09:21:11;;;;;;;11.50;7.53;;;;;;;46.04;15.59;100852.41;4947708;28;106167;-64
2021/09/08 09:23:50;;;;;;;8.02;6.80;;;;;;;45.63;15.17;100842.22;4947713;28;105920;-62
2021/09/08 09:26:25;;;;;;;10.52;6.80;;;;;;;45.52;15.16;100841.38;4946616;28;105844;-62
2021/09/08 09:28:53;;;;;;;10.45;6.88;;;;;;;45.16;14.86;100841.19;4946685;28;106394;-63
2021/09/08 09:31:22;;;;;;;9.85;7.07;;;;;;;45.05;15.05;100839.06;4906746;28;106424;-63
2021/09/08 09:33:54;;;;;;;11.35;6.75;;;;;;;45.51;14.44;100834.13;4950531;28;105990;-63
2021/09/08 09:36:30;;;;;;;12.85;7.28;;;;;;;46.97;13.46;100826.28;4947013;28;106086;-63
2021/09/08 09:38:56;;;;;;;11.93;7.20;;;;;;;46.84;13.08;100822.31;4948182;28;106323;-63
2021/09/08 09:41:32;;;;;;;9.27;6.47;;;;;;;46.76;13.26;100818.69;4947550;28;106205;-63
2021/09/08 09:44:09;;;;;;;9.63;7.20;;;;;;;47.68;12.83;100818.03;4948231;28;106629;-64
2021/09/08 09:46:38;;;;;;;9.55;6.82;;;;;;;47.96;12.51;100815.03;4950757;28;106205;-63
2021/09/08 09:49:04;;;;;;;8.27;6.43;;;;;;;48.40;12.23;100812.72;4950003;28;106075;-63
2021/09/08 09:51:29;;;;;;;10.98;6.72;;;;;;;49.09;11.54;100829.03;4950533;28;106384;-63
2021/09/08 09:53:55;;;;;;;7.65;6.30;;;;;;;48.23;11.85;100808.00;4939474;28;106638;-64
2021/09/08 09:56:20;;;;;;;7.03;6.15;;;;;;;47.59;12.14;100805.16;4940102;28;106055;-64
2021/09/08 09:58:46;;;;;;;10.80;6.00;;;;;;;48.09;11.61;100791.97;4948804;28;106299;-64
2021/09/08 10:01:12;;;;;;;8.38;6.60;;;;;;;47.70;11.81;100793.81;4951162;28;106317;-65
2021/09/08 10:03:39;;;;;;;9.88;6.72;;;;;;;47.59;12.05;100793.09;4950932;28;106042;-65
2021/09/08 10:06:04;;;;;;;10.15;6.60;;;;;;;48.35;11.38;100787.72;4950187;28;106457;-65
2021/09/08 10:08:33;;;;;;;11.68;6.32;;;;;;;48.71;11.03;100787.44;4951492;28;106146;-65
2021/09/08 10:11:04;;;;;;;8.88;6.07;;;;;;;49.08;10.71;100794.31;4950488;28;106105;-64
2021/09/08 10:13:42;;;;;;;8.68;6.20;;;;;;;48.36;10.83;100783.69;4950116;28;105973;-65
2021/09/08 10:16:09;;;;;;;7.35;6.32;;;;;;;49.33;10.53;100778.28;4950521;28;106298;-65
2021/09/08 10:18:35;;;;;;;7.50;5.80;;;;;;;50.09;10.32;100790.13;4950968;28;106374;-65
2021/09/08 10:21:08;;;;;;;7.18;6.00;;;;;;;49.96;10.22;100786.31;4950612;28;106280;-65
2021/09/08 10:23:38;;;;;;;9.23;6.20;;;;;;;50.13;9.77;100771.03;4949774;28;106609;-63
2021/09/08 10:26:13;;;;;;;8.35;5.60;;;;;;;50.81;9.91;100773.13;4950344;28;105970;-64
2021/09/08 10:28:41;;;;;;;10.35;6.32;;;;;;;50.42;9.77;100776.22;4950763;28;106190;-64
2021/09/08 10:31:09;;;;;;;8.93;6.47;;;;;;;50.28;9.74;100765.94;4950331;28;105856;-64
2021/09/08 10:33:39;;;;;;;10.35;6.00;;;;;;;51.77;9.39;100775.94;4949886;28;106414;-63
2021/09/08 10:36:04;;;;;;;10.00;6.22;;;;;;;52.16;8.98;100770.53;4948679;28;105962;-64
2021/09/08 10:38:32;;;;;;;7.30;6.03;;;;;;;51.24;9.00;100769.41;4950544;28;106295;-65
2021/09/08 10:40:58;;;;;;;7.18;5.57;;;;;;;50.46;9.69;100754.28;4949897;28;105871;-62
2021/09/08 10:43:29;;;;;;;8.25;5.82;;;;;;;50.72;9.44;100743.31;4949888;28;107272;-63
2021/09/08 10:45:54;;;;;;;7.03;6.00;;;;;;;51.06;8.84;100750.75;4949583;28;106133;-62
2021/09/08 10:48:45;;;;;;;7.60;5.55;;;;;;;51.57;8.32;100750.41;4950481;28;106408;-64
2021/09/08 10:51:17;;;;;;;8.60;6.65;;;;;;;51.69;8.20;100748.94;4949958;28;106165;-64
2021/09/08 10:53:43;;;;;;;7.97;5.47;;;;;;;-147.20;100.00;63046.97;5015393;28;106015;-64
2021/09/08 10:56:09;;;;;;;8.30;6.25;;;;;;;-147.20;100.00;63046.97;5041609;28;20037;-65
2021/09/08 10:58:54;;;;;;;7.40;5.63;;;;;;;-147.20;100.00;63046.97;5041616;28;20105;-64
2021/09/08 11:01:20;;;;;;;8.68;5.10;;;;;;;-147.20;100.00;63046.97;5041357;28;20036;-64